Time,TemperatureF,DewpointF,PressureIn,WindDirection,WindDirectionDegrees,WindSpeedMPH,WindSpeedGustMPH,Humidity,HourlyPrecipIn,Conditions,Clouds,dailyrainin,SolarRadiationWatts/m^2,SoftwareType,DateUTC
2013-07-15 00:02:00,68.9,67.1,30.08,East,94,2.0,3.0,94,0.00,,SKC,0.04,0.00,VWS V14.00,2013-07-15 05:02:00,
2013-07-15 00:07:00,69.0,67.2,30.08,ESE,107,2.0,4.0,94,0.00,,SKC,0.00,0.00,VWS V14.00,2013-07-15 05:07:00,
2013-07-15 00:13:00,69.0,67.2,30.08,East,85,0.0,3.0,94,0.00,,SKC,0.00,0.00,VWS V14.00,2013-07-15 05:13:00,
2013-07-15 00:18:00,69.1,67.3,30.08,ESE,103,0.0,6.0,94,0.00,,SKC,0.00,0.00,VWS V14.00,2013-07-15 05:18:00,
2013-07-15 00:23:00,69.2,67.4,30.08,East,88,1.0,4.0,94,0.00,,SKC,0.00,0.00,VWS V14.00,2013-07-15 05:23:00,
2013-07-15 00:28:00,69.3,67.2,30.08,East,86,2.0,3.0,93,0.00,,SKC,0.00,0.00,VWS V14.00,2013-07-15 05:28:00,
2013-07-15 00:33:00,69.3,67.2,30.08,ESE,106,3.0,5.0,93,0.00,,SKC,0.00,0.00,VWS V14.00,2013-07-15 05:33:00,
2013-07-15 00:38:00,69.3,67.2,30.08,ESE,105,2.0,3.0,93,0.00,,SKC,0.00,0.00,VWS V14.00,2013-07-15 05:38:00,
2013-07-15 00:43:00,69.3,67.2,30.08,ENE,76,3.0,4.0,93,0.00,,SKC,0.00,0.00,VWS V14.00,2013-07-15 05:43:00,
2013-07-15 00:48:00,69.3,67.2,30.08,ENE,75,0.0,4.0,93,0.00,,SKC,0.00,0.00,VWS V14.00,2013-07-15 05:48:00,
2013-07-15 00:53:00,69.3,67.2,30.08,East,88,3.0,3.0,93,0.00,,SKC,0.00,0.00,VWS V14.00,2013-07-15 05:53:00,
2013-07-15 00:58:00,69.4,67.3,30.08,ESE,102,4.0,5.0,93,0.00,,SKC,0.00,0.00,VWS V14.00,2013-07-15 05:58:00,
2013-07-15 01:03:00,69.4,67.3,30.08,ENE,66,0.0,2.0,93,0.00,,SKC,0.00,0.00,VWS V14.00,2013-07-15 06:03:00,
2013-07-15 01:08:00,69.4,67.3,30.08,ENE,66,0.0,1.0,93,0.00,,SKC,0.00,0.00,VWS V14.00,2013-07-15 06:08:00,
2013-07-15 01:13:00,69.4,67.3,30.08,ENE,66,0.0,1.0,93,0.00,,SKC,0.00,0.00,VWS V14.00,2013-07-15 06:13:00,
2013-07-15 01:18:00,69.4,67.3,30.08,ENE,66,0.0,0.0,93,0.00,,SKC,0.00,0.00,VWS V14.00,2013-07-15 06:18:00,
2013-07-15 01:23:00,69.4,67.3,30.08,ENE,66,0.0,1.0,93,0.00,,SKC,0.00,0.00,VWS V14.00,2013-07-15 06:23:00,
2013-07-15 01:28:00,69.4,67.3,30.09,ENE,66,0.0,0.0,93,0.00,,SKC,0.00,0.00,VWS V14.00,2013-07-15 06:28:00,
2013-07-15 01:33:00,69.4,67.3,30.09,ENE,66,0.0,0.0,93,0.00,,SKC,0.00,0.00,VWS V14.00,2013-07-15 06:33:00,
2013-07-15 01:38:00,69.3,67.2,30.09,ENE,66,0.0,0.0,93,0.00,,SKC,0.00,0.00,VWS V14.00,2013-07-15 06:38:00,
2013-07-15 01:43:00,69.3,67.2,30.09,ENE,66,0.0,0.0,93,0.00,,SKC,0.00,0.00,VWS V14.00,2013-07-15 06:43:00,
2013-07-15 01:48:00,69.3,67.2,30.09,ENE,66,0.0,0.0,93,0.00,,SKC,0.00,0.00,VWS V14.00,2013-07-15 06:48:00,
2013-07-15 01:53:00,69.2,67.1,30.08,ENE,66,0.0,0.0,93,0.00,,SKC,0.00,0.00,VWS V14.00,2013-07-15 06:53:00,
2013-07-15 01:58:00,69.2,67.1,30.08,ENE,66,0.0,0.0,93,0.00,,SKC,0.00,0.00,VWS V14.00,2013-07-15 06:58:00,
2013-07-15 02:03:00,69.2,67.1,30.08,ENE,66,0.0,0.0,93,0.00,,SKC,0.00,0.00,VWS V14.00,2013-07-15 07:03:00,
2013-07-15 02:08:00,69.1,67.0,30.08,ENE,66,0.0,0.0,93,0.00,,SKC,0.00,0.00,VWS V14.00,2013-07-15 07:08:00,
2013-07-15 02:13:00,69.0,66.9,30.08,ENE,66,0.0,0.0,93,0.00,,SKC,0.00,0.00,VWS V14.00,2013-07-15 07:13:00,
2013-07-15 02:18:00,69.0,67.2,30.08,ENE,66,0.0,1.0,94,0.00,,SKC,0.00,0.00,VWS V14.00,2013-07-15 07:18:00,
2013-07-15 02:23:00,68.9,67.1,30.08,ENE,66,1.0,1.0,94,0.00,,SKC,0.00,0.00,VWS V14.00,2013-07-15 07:23:00,
2013-07-15 02:28:00,68.7,66.9,30.08,ENE,66,0.0,1.0,94,0.00,,SKC,0.00,0.00,VWS V14.00,2013-07-15 07:28:00,
2013-07-15 02:33:00,68.7,66.9,30.07,ENE,66,0.0,0.0,94,0.00,,SKC,0.00,0.00,VWS V14.00,2013-07-15 07:33:00,
2013-07-15 02:38:00,68.6,66.8,30.08,ENE,66,0.0,0.0,94,0.00,,SKC,0.00,0.00,VWS V14.00,2013-07-15 07:38:00,
2013-07-15 02:43:00,68.6,66.8,30.08,ENE,66,0.0,0.0,94,0.00,,SKC,0.00,0.00,VWS V14.00,2013-07-15 07:43:00,
2013-07-15 02:48:00,68.5,66.7,30.07,ENE,72,1.0,1.0,94,0.00,,SKC,0.00,0.00,VWS V14.00,2013-07-15 07:48:00,
2013-07-15 02:53:00,68.4,66.6,30.07,ENE,78,2.0,4.0,94,0.00,,SKC,0.00,0.00,VWS V14.00,2013-07-15 07:53:00,
2013-07-15 02:58:00,68.4,66.9,30.07,East,88,3.0,4.0,95,0.00,,SKC,0.00,0.00,VWS V14.00,2013-07-15 07:58:00,
2013-07-15 03:03:00,68.4,66.9,30.07,ENE,70,3.0,3.0,95,0.00,,SKC,0.00,0.00,VWS V14.00,2013-07-15 08:03:00,
2013-07-15 03:08:00,68.4,66.9,30.07,East,98,1.0,3.0,95,0.00,,SKC,0.00,0.00,VWS V14.00,2013-07-15 08:08:00,
2013-07-15 03:13:00,68.4,66.9,30.07,East,88,3.0,3.0,95,0.00,,SKC,0.00,0.00,VWS V14.00,2013-07-15 08:13:00,
2013-07-15 03:18:00,68.4,66.9,30.07,ENE,65,2.0,5.0,95,0.00,,SKC,0.00,0.00,VWS V14.00,2013-07-15 08:18:00,
2013-07-15 03:23:00,68.4,66.9,30.07,SSE,153,1.0,5.0,95,0.00,,SKC,0.00,0.00,VWS V14.00,2013-07-15 08:23:00,
2013-07-15 03:28:00,68.5,66.7,30.07,East,95,0.0,3.0,94,0.00,,SKC,0.00,0.00,VWS V14.00,2013-07-15 08:28:00,
2013-07-15 03:33:00,68.4,66.6,30.07,East,80,1.0,5.0,94,0.00,,SKC,0.00,0.00,VWS V14.00,2013-07-15 08:33:00,
2013-07-15 03:38:00,68.5,66.7,30.07,ESE,110,3.0,5.0,94,0.00,,SKC,0.00,0.00,VWS V14.00,2013-07-15 08:38:00,
2013-07-15 03:43:00,68.5,66.7,30.08,ESE,116,3.0,5.0,94,0.00,,SKC,0.00,0.00,VWS V14.00,2013-07-15 08:43:00,
2013-07-15 03:48:00,68.5,66.7,30.07,ESE,103,2.0,3.0,94,0.00,,SKC,0.00,0.00,VWS V14.00,2013-07-15 08:48:00,
2013-07-15 03:53:00,68.5,66.7,30.07,ESE,107,0.0,3.0,94,0.00,,SKC,0.00,0.00,VWS V14.00,2013-07-15 08:53:00,
2013-07-15 03:58:00,68.4,66.6,30.07,ESE,112,2.0,4.0,94,0.00,,SKC,0.00,0.00,VWS V14.00,2013-07-15 08:58:00,
2013-07-15 04:03:00,68.3,66.5,30.07,ESE,122,3.0,4.0,94,0.00,,SKC,0.00,0.00,VWS V14.00,2013-07-15 09:03:00,
2013-07-15 04:08:00,68.3,66.5,30.07,ESE,112,2.0,5.0,94,0.00,,SKC,0.00,0.00,VWS V14.00,2013-07-15 09:08:00,
2013-07-15 04:14:00,68.2,66.4,30.07,ESE,113,2.0,4.0,94,0.00,,SKC,0.00,0.00,VWS V14.00,2013-07-15 09:14:00,
2013-07-15 04:19:00,68.1,66.3,30.07,ESE,118,1.0,3.0,94,0.00,,SKC,0.00,0.00,VWS V14.00,2013-07-15 09:19:00,
2013-07-15 04:24:00,68.0,66.2,30.07,ESE,117,1.0,2.0,94,0.00,,SKC,0.00,0.00,VWS V14.00,2013-07-15 09:24:00,
2013-07-15 04:29:00,67.9,66.1,30.07,ESE,117,2.0,2.0,94,0.00,,SKC,0.00,0.00,VWS V14.00,2013-07-15 09:29:00,
2013-07-15 04:34:00,67.7,65.9,30.07,ESE,117,1.0,2.0,94,0.00,,SKC,0.00,0.00,VWS V14.00,2013-07-15 09:34:00,
2013-07-15 04:39:00,67.6,65.8,30.07,ESE,118,3.0,3.0,94,0.00,,SKC,0.00,0.00,VWS V14.00,2013-07-15 09:39:00,
2013-07-15 04:44:00,67.5,65.7,30.07,ESE,117,2.0,4.0,94,0.00,,SKC,0.00,0.00,VWS V14.00,2013-07-15 09:44:00,
2013-07-15 04:49:00,67.4,65.6,30.07,ESE,119,2.0,3.0,94,0.00,,SKC,0.00,0.00,VWS V14.00,2013-07-15 09:49:00,
2013-07-15 04:54:00,67.3,65.5,30.08,ESE,114,2.0,3.0,94,0.00,,SKC,0.00,0.00,VWS V14.00,2013-07-15 09:54:00,
2013-07-15 04:59:00,67.2,65.4,30.07,ESE,115,1.0,3.0,94,0.00,,SKC,0.00,0.00,VWS V14.00,2013-07-15 09:59:00,
2013-07-15 05:04:00,67.1,65.3,30.08,ESE,115,2.0,2.0,94,0.00,,SKC,0.00,0.00,VWS V14.00,2013-07-15 10:04:00,
2013-07-15 05:09:00,67.0,65.5,30.08,ESE,115,3.0,3.0,95,0.00,,SKC,0.00,0.00,VWS V14.00,2013-07-15 10:09:00,
2013-07-15 05:14:00,66.9,65.4,30.08,ESE,115,0.0,1.0,95,0.00,,SKC,0.00,0.00,VWS V14.00,2013-07-15 10:14:00,
2013-07-15 05:19:00,66.8,65.3,30.08,ESE,115,1.0,2.0,95,0.00,,SKC,0.00,0.00,VWS V14.00,2013-07-15 10:19:00,
2013-07-15 05:24:00,66.6,64.8,30.08,ESE,115,2.0,2.0,94,0.00,,SKC,0.00,0.00,VWS V14.00,2013-07-15 10:24:00,
2013-07-15 05:29:00,66.4,64.6,30.08,ESE,115,1.0,2.0,94,0.00,,SKC,0.00,0.00,VWS V14.00,2013-07-15 10:29:00,
2013-07-15 05:34:00,66.2,64.4,30.08,ESE,115,0.0,1.0,94,0.00,,SKC,0.00,0.00,VWS V14.00,2013-07-15 10:34:00,
2013-07-15 05:39:00,66.1,64.3,30.08,ESE,115,2.0,3.0,94,0.00,,SKC,0.00,0.00,VWS V14.00,2013-07-15 10:39:00,
2013-07-15 05:44:00,66.0,64.2,30.08,ESE,115,1.0,2.0,94,0.00,,SKC,0.00,0.00,VWS V14.00,2013-07-15 10:44:00,
2013-07-15 05:49:00,65.8,64.0,30.08,SE,132,3.0,5.0,94,0.00,,SKC,0.00,0.00,VWS V14.00,2013-07-15 10:49:00,
2013-07-15 05:54:00,65.7,63.9,30.08,SE,132,1.0,3.0,94,0.00,,SKC,0.00,5.00,VWS V14.00,2013-07-15 10:54:00,
2013-07-15 05:59:00,65.7,63.9,30.08,SE,132,0.0,0.0,94,0.00,,SKC,0.00,7.00,VWS V14.00,2013-07-15 10:59:00,
2013-07-15 06:04:00,65.6,63.8,30.08,SE,132,1.0,2.0,94,0.00,,SKC,0.00,9.00,VWS V14.00,2013-07-15 11:04:00,
2013-07-15 06:09:00,65.6,63.8,30.08,SSE,157,2.0,4.0,94,0.00,,SKC,0.00,12.00,VWS V14.00,2013-07-15 11:09:00,
2013-07-15 06:14:00,65.6,63.8,30.09,SSE,148,0.0,1.0,94,0.00,,SKC,0.00,14.00,VWS V14.00,2013-07-15 11:14:00,
2013-07-15 06:19:00,65.6,63.8,30.09,SSE,165,0.0,1.0,94,0.00,,SKC,0.00,19.00,VWS V14.00,2013-07-15 11:19:00,
2013-07-15 06:24:00,65.7,63.9,30.09,SSE,165,0.0,0.0,94,0.00,,SKC,0.00,25.00,VWS V14.00,2013-07-15 11:24:00,
2013-07-15 06:29:00,65.7,63.9,30.09,SSE,165,0.0,0.0,94,0.00,,SKC,0.00,26.00,VWS V14.00,2013-07-15 11:29:00,
2013-07-15 06:34:00,65.7,63.9,30.09,SSE,165,0.0,0.0,94,0.00,,SKC,0.00,32.00,VWS V14.00,2013-07-15 11:34:00,
2013-07-15 06:39:00,65.6,63.8,30.09,SSE,165,0.0,0.0,94,0.00,,SKC,0.00,32.00,VWS V14.00,2013-07-15 11:39:00,
2013-07-15 06:45:00,65.6,64.1,30.09,SSE,165,0.0,1.0,95,0.00,,SKC,0.00,35.00,VWS V14.00,2013-07-15 11:45:00,
2013-07-15 06:50:00,65.7,64.2,30.09,SSE,165,0.0,0.0,95,0.00,,SKC,0.00,39.00,VWS V14.00,2013-07-15 11:50:00,
2013-07-15 06:55:00,65.8,64.3,30.09,SSE,165,0.0,1.0,95,0.00,,SKC,0.00,42.00,VWS V14.00,2013-07-15 11:55:00,
2013-07-15 07:00:00,66.1,64.6,30.10,SSE,165,0.0,0.0,95,0.00,,SKC,0.00,46.00,VWS V14.00,2013-07-15 12:00:00,
2013-07-15 07:05:00,66.3,64.8,30.10,SSE,165,0.0,0.0,95,0.00,,SKC,0.00,46.00,VWS V14.00,2013-07-15 12:05:00,
2013-07-15 07:10:00,66.6,65.1,30.10,SSE,165,0.0,1.0,95,0.00,,SKC,0.00,49.00,VWS V14.00,2013-07-15 12:10:00,
2013-07-15 07:15:00,67.0,65.5,30.10,SSE,165,0.0,1.0,95,0.00,,SKC,0.00,53.00,VWS V14.00,2013-07-15 12:15:00,
2013-07-15 07:20:00,67.3,65.5,30.10,SSE,165,0.0,1.0,94,0.00,,SKC,0.00,65.00,VWS V14.00,2013-07-15 12:20:00,
2013-07-15 07:25:00,67.7,65.9,30.09,SSE,165,0.0,1.0,94,0.00,,SKC,0.00,83.00,VWS V14.00,2013-07-15 12:25:00,
2013-07-15 07:30:00,68.2,66.1,30.10,SSE,165,0.0,2.0,93,0.00,,SKC,0.00,102.00,VWS V14.00,2013-07-15 12:30:00,
2013-07-15 07:35:00,68.6,66.2,30.10,SSE,165,0.0,1.0,92,0.00,,SKC,0.00,148.00,VWS V14.00,2013-07-15 12:35:00,
2013-07-15 07:40:00,69.0,66.3,30.10,SSE,165,0.0,1.0,91,0.00,,SKC,0.00,185.00,VWS V14.00,2013-07-15 12:40:00,
2013-07-15 07:45:00,69.4,66.7,30.10,SSE,165,2.0,2.0,91,0.00,,SKC,0.00,218.00,VWS V14.00,2013-07-15 12:45:00,
2013-07-15 07:50:00,69.9,66.8,30.10,SSE,164,0.0,3.0,90,0.00,,SKC,0.00,239.00,VWS V14.00,2013-07-15 12:50:00,
2013-07-15 07:55:00,70.2,66.8,30.11,SSE,164,0.0,0.0,89,0.00,,SKC,0.00,258.00,VWS V14.00,2013-07-15 12:55:00,
2013-07-15 08:00:00,70.6,67.2,30.11,SSE,164,1.0,2.0,89,0.00,,SKC,0.00,279.00,VWS V14.00,2013-07-15 13:00:00,
2013-07-15 08:05:00,71.0,66.9,30.11,SSE,153,0.0,4.0,87,0.00,,SKC,0.00,302.00,VWS V14.00,2013-07-15 13:05:00,
2013-07-15 08:10:00,71.4,67.3,30.11,SSE,156,0.0,3.0,87,0.00,,SKC,0.00,318.00,VWS V14.00,2013-07-15 13:10:00,
2013-07-15 08:15:00,71.8,67.4,30.11,South,186,0.0,3.0,86,0.00,,SKC,0.00,338.00,VWS V14.00,2013-07-15 13:15:00,
2013-07-15 08:20:00,72.2,67.8,30.10,South,186,1.0,3.0,86,0.00,,SKC,0.00,353.00,VWS V14.00,2013-07-15 13:20:00,
2013-07-15 08:25:00,72.7,67.9,30.10,South,186,1.0,1.0,85,0.00,,SKC,0.00,367.00,VWS V14.00,2013-07-15 13:25:00,
2013-07-15 08:30:00,73.0,67.5,30.11,South,186,0.0,4.0,83,0.00,,SKC,0.00,378.00,VWS V14.00,2013-07-15 13:30:00,
2013-07-15 08:35:00,73.4,68.3,30.11,South,186,0.0,3.0,84,0.00,,SKC,0.00,399.00,VWS V14.00,2013-07-15 13:35:00,
2013-07-15 08:40:00,73.9,68.4,30.11,South,178,0.0,2.0,83,0.00,,SKC,0.00,410.00,VWS V14.00,2013-07-15 13:40:00,
2013-07-15 08:45:00,74.3,68.4,30.11,SSE,148,2.0,5.0,82,0.00,,SKC,0.00,431.00,VWS V14.00,2013-07-15 13:45:00,
2013-07-15 08:50:00,74.6,68.8,30.11,SSE,147,4.0,4.0,82,0.00,,SKC,0.00,439.00,VWS V14.00,2013-07-15 13:50:00,
2013-07-15 08:55:00,74.9,68.7,30.11,South,189,3.0,3.0,81,0.00,,SKC,0.00,462.00,VWS V14.00,2013-07-15 13:55:00,
2013-07-15 09:00:00,75.3,69.1,30.11,South,190,2.0,3.0,81,0.00,,SKC,0.00,464.00,VWS V14.00,2013-07-15 14:00:00,
2013-07-15 09:05:00,75.6,69.0,30.11,SSE,167,1.0,4.0,80,0.00,,SKC,0.00,475.00,VWS V14.00,2013-07-15 14:05:00,
2013-07-15 09:10:00,75.9,68.2,30.11,SSW,198,3.0,7.0,77,0.00,,SKC,0.00,497.00,VWS V14.00,2013-07-15 14:10:00,
2013-07-15 09:15:00,76.1,69.5,30.11,SSE,152,0.0,5.0,80,0.00,,SKC,0.00,496.00,VWS V14.00,2013-07-15 14:15:00,
2013-07-15 09:20:00,76.4,69.0,30.11,South,186,0.0,5.0,78,0.00,,SKC,0.00,520.00,VWS V14.00,2013-07-15 14:20:00,
2013-07-15 09:25:00,76.5,69.1,30.12,South,186,3.0,6.0,78,0.00,,SKC,0.00,534.00,VWS V14.00,2013-07-15 14:25:00,
2013-07-15 09:30:00,76.7,68.9,30.11,South,184,4.0,5.0,77,0.00,,SKC,0.00,529.00,VWS V14.00,2013-07-15 14:30:00,
2013-07-15 09:35:00,76.9,68.8,30.12,SSW,197,1.0,5.0,76,0.00,,SKC,0.00,554.00,VWS V14.00,2013-07-15 14:35:00,
2013-07-15 09:40:00,77.2,68.7,30.12,South,178,3.0,4.0,75,0.00,,SKC,0.00,561.00,VWS V14.00,2013-07-15 14:40:00,
2013-07-15 09:45:00,77.5,70.5,30.11,SW,219,4.0,6.0,79,0.00,,SKC,0.00,584.00,VWS V14.00,2013-07-15 14:45:00,
2013-07-15 09:50:00,77.8,69.6,30.11,SSW,194,5.0,6.0,76,0.00,,SKC,0.00,589.00,VWS V14.00,2013-07-15 14:50:00,
2013-07-15 09:56:00,78.2,70.4,30.11,South,179,3.0,3.0,77,0.00,,SKC,0.00,612.00,VWS V14.00,2013-07-15 14:56:00,
2013-07-15 10:01:00,78.5,70.3,30.11,SE,137,0.0,4.0,76,0.00,,SKC,0.00,621.00,VWS V14.00,2013-07-15 15:01:00,
2013-07-15 10:06:00,79.0,70.0,30.11,South,188,2.0,6.0,74,0.00,,SKC,0.00,617.00,VWS V14.00,2013-07-15 15:06:00,
2013-07-15 10:11:00,79.2,69.4,30.11,SE,143,3.0,5.0,72,0.00,,SKC,0.00,652.00,VWS V14.00,2013-07-15 15:11:00,
2013-07-15 10:17:00,79.4,70.4,30.11,SE,144,3.0,5.0,74,0.00,,SKC,0.00,666.00,VWS V14.00,2013-07-15 15:17:00,
2013-07-15 10:22:00,79.8,70.4,30.11,South,171,2.0,6.0,73,0.00,,SKC,0.00,682.00,VWS V14.00,2013-07-15 15:22:00,
2013-07-15 10:27:00,80.0,69.8,30.11,South,178,0.0,7.0,71,0.00,,SKC,0.00,687.00,VWS V14.00,2013-07-15 15:27:00,
2013-07-15 10:32:00,80.2,70.4,30.11,SW,225,2.0,5.0,72,0.00,,SKC,0.00,691.00,VWS V14.00,2013-07-15 15:32:00,
2013-07-15 10:38:00,80.5,70.2,30.11,WSW,240,3.0,6.0,71,0.00,,SKC,0.00,705.00,VWS V14.00,2013-07-15 15:38:00,
2013-07-15 10:43:00,80.7,70.0,30.11,SSE,152,4.0,6.0,70,0.00,,SKC,0.00,710.00,VWS V14.00,2013-07-15 15:43:00,
2013-07-15 10:48:00,80.9,69.8,30.11,South,175,2.0,7.0,69,0.00,,SKC,0.00,722.00,VWS V14.00,2013-07-15 15:48:00,
2013-07-15 10:53:00,81.2,70.9,30.11,SSW,196,2.0,5.0,71,0.00,,SKC,0.00,719.00,VWS V14.00,2013-07-15 15:53:00,
2013-07-15 10:58:00,81.5,70.4,30.11,SSW,201,4.0,7.0,69,0.00,,SKC,0.00,722.00,VWS V14.00,2013-07-15 15:58:00,
2013-07-15 11:03:00,81.7,70.6,30.11,South,169,2.0,7.0,69,0.00,,SKC,0.00,747.00,VWS V14.00,2013-07-15 16:03:00,
2013-07-15 11:08:00,82.0,70.8,30.11,South,177,2.0,4.0,69,0.00,,SKC,0.00,740.00,VWS V14.00,2013-07-15 16:08:00,
2013-07-15 11:13:00,82.1,70.5,30.11,SSW,212,3.0,4.0,68,0.00,,SKC,0.00,759.00,VWS V14.00,2013-07-15 16:13:00,
2013-07-15 11:18:00,82.3,70.7,30.11,South,187,3.0,4.0,68,0.00,,SKC,0.00,786.00,VWS V14.00,2013-07-15 16:18:00,
2013-07-15 11:23:00,82.4,69.0,30.11,South,182,6.0,6.0,64,0.00,,SKC,0.00,798.00,VWS V14.00,2013-07-15 16:23:00,
2013-07-15 11:29:00,82.5,69.6,30.11,South,177,5.0,6.0,65,0.00,,SKC,0.00,816.00,VWS V14.00,2013-07-15 16:29:00,
2013-07-15 11:35:00,82.5,69.6,30.11,SSW,202,4.0,11.0,65,0.00,,SKC,0.00,814.00,VWS V14.00,2013-07-15 16:35:00,
2013-07-15 11:41:00,82.7,70.2,30.11,SSW,213,4.0,7.0,66,0.00,,SKC,0.00,821.00,VWS V14.00,2013-07-15 16:41:00,
2013-07-15 11:46:00,83.0,70.5,30.10,South,177,0.0,7.0,66,0.00,,SKC,0.00,846.00,VWS V14.00,2013-07-15 16:46:00,
2013-07-15 11:51:00,83.3,70.3,30.10,SSW,208,4.0,8.0,65,0.00,,SKC,0.00,851.00,VWS V14.00,2013-07-15 16:51:00,
2013-07-15 11:56:00,83.4,69.9,30.10,SSW,203,6.0,8.0,64,0.00,,SKC,0.00,861.00,VWS V14.00,2013-07-15 16:56:00,
2013-07-15 12:03:00,83.6,69.7,30.10,SSW,194,5.0,10.0,63,0.00,,SKC,0.00,861.00,VWS V14.00,2013-07-15 17:03:00,
2013-07-15 12:08:00,83.7,69.8,30.10,South,185,8.0,9.0,63,0.00,,SKC,0.00,851.00,VWS V14.00,2013-07-15 17:08:00,
2013-07-15 12:13:00,83.9,70.9,30.10,South,174,5.0,6.0,65,0.00,,SKC,0.00,861.00,VWS V14.00,2013-07-15 17:13:00,
2013-07-15 12:18:00,84.1,71.5,30.10,South,175,6.0,9.0,66,0.00,,SKC,0.00,872.00,VWS V14.00,2013-07-15 17:18:00,
2013-07-15 12:23:00,84.2,70.7,30.10,WSW,247,4.0,7.0,64,0.00,,SKC,0.00,879.00,VWS V14.00,2013-07-15 17:23:00,
2013-07-15 12:28:00,84.3,70.8,30.10,WSW,238,3.0,7.0,64,0.00,,SKC,0.00,877.00,VWS V14.00,2013-07-15 17:28:00,
2013-07-15 12:34:00,84.3,69.9,30.10,SSW,199,5.0,10.0,62,0.00,,SKC,0.00,909.00,VWS V14.00,2013-07-15 17:34:00,
2013-07-15 12:39:00,84.5,71.4,30.10,SSW,198,1.0,4.0,65,0.00,,SKC,0.00,940.00,VWS V14.00,2013-07-15 17:39:00,
2013-07-15 12:44:00,84.8,70.3,30.10,SSW,210,6.0,6.0,62,0.00,,SKC,0.00,976.00,VWS V14.00,2013-07-15 17:44:00,
2013-07-15 12:49:00,85.1,69.7,30.10,South,182,5.0,5.0,60,0.00,,SKC,0.00,997.00,VWS V14.00,2013-07-15 17:49:00,
2013-07-15 12:54:00,85.1,70.2,30.10,WSW,237,5.0,9.0,61,0.00,,SKC,0.00,977.00,VWS V14.00,2013-07-15 17:54:00,
2013-07-15 12:59:00,85.1,70.6,30.10,SSW,204,2.0,5.0,62,0.00,,SKC,0.00,998.00,VWS V14.00,2013-07-15 17:59:00,
2013-07-15 13:04:00,85.2,68.8,30.09,South,169,6.0,12.0,58,0.00,,SKC,0.00,1005.00,VWS V14.00,2013-07-15 18:04:00,
2013-07-15 13:10:00,85.4,68.4,30.10,SSW,194,5.0,9.0,57,0.00,,SKC,0.00,819.00,VWS V14.00,2013-07-15 18:10:00,
2013-07-15 13:15:00,85.5,70.0,30.09,SE,140,7.0,9.0,60,0.00,,SKC,0.00,1034.00,VWS V14.00,2013-07-15 18:15:00,
2013-07-15 13:20:00,85.4,69.4,30.09,South,190,10.0,11.0,59,0.00,,SKC,0.00,1069.00,VWS V14.00,2013-07-15 18:20:00,
2013-07-15 13:25:00,85.1,69.7,30.09,South,177,3.0,4.0,60,0.00,,SKC,0.00,206.00,VWS V14.00,2013-07-15 18:25:00,
2013-07-15 13:30:00,85.0,69.1,30.09,SE,140,2.0,7.0,59,0.00,,SKC,0.00,1014.00,VWS V14.00,2013-07-15 18:30:00,
2013-07-15 13:35:00,85.4,69.0,30.09,South,189,2.0,11.0,58,0.00,,SKC,0.00,269.00,VWS V14.00,2013-07-15 18:35:00,
2013-07-15 13:40:00,85.5,68.0,30.09,SSE,154,5.0,13.0,56,0.00,,SKC,0.00,1083.00,VWS V14.00,2013-07-15 18:40:00,
2013-07-15 13:45:00,85.6,69.1,30.09,SSE,149,2.0,11.0,58,0.00,,SKC,0.00,976.00,VWS V14.00,2013-07-15 18:45:00,
2013-07-15 13:51:00,85.7,69.2,30.08,SSW,194,5.0,11.0,58,0.00,,SKC,0.00,1032.00,VWS V14.00,2013-07-15 18:51:00,
2013-07-15 13:56:00,85.7,67.7,30.09,SE,141,8.0,10.0,55,0.00,,SKC,0.00,295.00,VWS V14.00,2013-07-15 18:56:00,
2013-07-15 14:01:00,85.4,67.9,30.08,ESE,123,6.0,7.0,56,0.00,,SKC,0.00,990.00,VWS V14.00,2013-07-15 19:01:00,
2013-07-15 14:06:00,85.5,68.0,30.08,South,178,11.0,13.0,56,0.00,,SKC,0.00,969.00,VWS V14.00,2013-07-15 19:06:00,
2013-07-15 14:11:00,85.6,70.1,30.08,SSE,155,6.0,10.0,60,0.00,,SKC,0.00,963.00,VWS V14.00,2013-07-15 19:11:00,
2013-07-15 14:16:00,85.5,69.6,30.08,South,176,3.0,7.0,59,0.00,,SKC,0.00,963.00,VWS V14.00,2013-07-15 19:16:00,
2013-07-15 14:21:00,85.2,68.3,30.08,ESE,117,8.0,12.0,57,0.00,,SKC,0.00,336.00,VWS V14.00,2013-07-15 19:21:00,
2013-07-15 14:26:00,84.8,68.4,30.08,SE,131,7.0,14.0,58,0.00,,SKC,0.00,912.00,VWS V14.00,2013-07-15 19:26:00,
2013-07-15 14:31:00,84.7,68.8,30.08,SE,146,9.0,14.0,59,0.00,,SKC,0.00,875.00,VWS V14.00,2013-07-15 19:31:00,
2013-07-15 14:37:00,84.4,69.0,30.08,SE,130,7.0,10.0,60,0.00,,SKC,0.00,926.00,VWS V14.00,2013-07-15 19:37:00,
2013-07-15 14:42:00,84.6,69.2,30.08,South,174,3.0,11.0,60,0.00,,SKC,0.00,930.00,VWS V14.00,2013-07-15 19:42:00,
2013-07-15 14:47:00,84.9,69.5,30.08,SSE,162,2.0,7.0,60,0.00,,SKC,0.00,881.00,VWS V14.00,2013-07-15 19:47:00,
2013-07-15 14:53:00,85.1,69.7,30.08,South,182,9.0,13.0,60,0.00,,SKC,0.00,745.00,VWS V14.00,2013-07-15 19:53:00,
2013-07-15 14:58:00,85.0,69.1,30.08,South,190,5.0,12.0,59,0.00,,SKC,0.00,745.00,VWS V14.00,2013-07-15 19:58:00,
2013-07-15 15:03:00,85.1,68.7,30.08,SSE,158,4.0,9.0,58,0.00,,SKC,0.00,837.00,VWS V14.00,2013-07-15 20:03:00,
2013-07-15 15:08:00,85.5,70.5,30.08,SE,142,8.0,10.0,61,0.00,,SKC,0.00,907.00,VWS V14.00,2013-07-15 20:08:00,
2013-07-15 15:13:00,85.6,69.6,30.08,SE,140,8.0,12.0,59,0.00,,SKC,0.00,953.00,VWS V14.00,2013-07-15 20:13:00,
2013-07-15 15:18:00,85.7,70.2,30.08,SSE,159,3.0,11.0,60,0.00,,SKC,0.00,206.00,VWS V14.00,2013-07-15 20:18:00,
2013-07-15 15:24:00,85.6,69.6,30.08,South,177,7.0,7.0,59,0.00,,SKC,0.00,234.00,VWS V14.00,2013-07-15 20:24:00,
2013-07-15 15:29:00,85.6,69.6,30.08,SSE,157,4.0,9.0,59,0.00,,SKC,0.00,262.00,VWS V14.00,2013-07-15 20:29:00,
2013-07-15 15:35:00,85.6,69.6,30.08,SE,132,7.0,7.0,59,0.00,,SKC,0.00,788.00,VWS V14.00,2013-07-15 20:35:00,
2013-07-15 15:41:00,85.2,69.8,30.08,SSE,168,10.0,10.0,60,0.00,,SKC,0.00,860.00,VWS V14.00,2013-07-15 20:41:00,
2013-07-15 15:46:00,85.1,70.2,30.07,SSE,153,10.0,10.0,61,0.00,,SKC,0.00,907.00,VWS V14.00,2013-07-15 20:46:00,
2013-07-15 15:51:00,85.2,68.8,30.07,SSE,150,6.0,12.0,58,0.00,,SKC,0.00,904.00,VWS V14.00,2013-07-15 20:51:00,
2013-07-15 15:56:00,85.4,70.4,30.07,SE,129,9.0,11.0,61,0.00,,SKC,0.00,904.00,VWS V14.00,2013-07-15 20:56:00,
2013-07-15 16:02:00,85.5,69.6,30.07,SE,133,11.0,11.0,59,0.00,,SKC,0.00,851.00,VWS V14.00,2013-07-15 21:02:00,
2013-07-15 16:08:00,85.7,70.2,30.06,SE,138,4.0,5.0,60,0.00,,SKC,0.00,828.00,VWS V14.00,2013-07-15 21:08:00,
2013-07-15 16:13:00,85.8,68.8,30.06,SSW,203,11.0,11.0,57,0.00,,SKC,0.00,733.00,VWS V14.00,2013-07-15 21:13:00,
2013-07-15 16:18:00,85.8,68.8,30.06,South,174,6.0,13.0,57,0.00,,SKC,0.00,759.00,VWS V14.00,2013-07-15 21:18:00,
2013-07-15 16:23:00,85.9,68.4,30.06,South,171,6.0,13.0,56,0.00,,SKC,0.00,171.00,VWS V14.00,2013-07-15 21:23:00,
2013-07-15 16:28:00,85.5,69.1,30.06,SE,130,6.0,17.0,58,0.00,,SKC,0.00,183.00,VWS V14.00,2013-07-15 21:28:00,
2013-07-15 16:33:00,85.1,69.2,30.06,SE,128,6.0,12.0,59,0.00,,SKC,0.00,715.00,VWS V14.00,2013-07-15 21:33:00,
2013-07-15 16:38:00,84.8,68.4,30.06,SE,144,2.0,9.0,58,0.00,,SKC,0.00,162.00,VWS V14.00,2013-07-15 21:38:00,
2013-07-15 16:43:00,84.5,69.6,30.06,SSW,192,7.0,10.0,61,0.00,,SKC,0.00,714.00,VWS V14.00,2013-07-15 21:43:00,
2013-07-15 16:48:00,84.6,69.7,30.06,SE,135,8.0,14.0,61,0.00,,SKC,0.00,719.00,VWS V14.00,2013-07-15 21:48:00,
2013-07-15 16:53:00,84.7,68.3,30.05,SE,144,5.0,13.0,58,0.00,,SKC,0.00,759.00,VWS V14.00,2013-07-15 21:53:00,
2013-07-15 16:58:00,84.7,68.3,30.05,SSW,194,7.0,13.0,58,0.00,,SKC,0.00,220.00,VWS V14.00,2013-07-15 21:58:00,
2013-07-15 17:03:00,84.5,69.6,30.05,SE,136,6.0,10.0,61,0.00,,SKC,0.00,163.00,VWS V14.00,2013-07-15 22:03:00,
2013-07-15 17:08:00,84.4,69.5,30.05,South,176,3.0,8.0,61,0.00,,SKC,0.00,642.00,VWS V14.00,2013-07-15 22:08:00,
2013-07-15 17:13:00,84.6,70.2,30.05,SSE,149,4.0,11.0,62,0.00,,SKC,0.00,643.00,VWS V14.00,2013-07-15 22:13:00,
2013-07-15 17:18:00,84.6,68.7,30.05,South,183,6.0,12.0,59,0.00,,SKC,0.00,120.00,VWS V14.00,2013-07-15 22:18:00,
2013-07-15 17:23:00,84.3,69.4,30.05,SE,144,3.0,10.0,61,0.00,,SKC,0.00,601.00,VWS V14.00,2013-07-15 22:23:00,
2013-07-15 17:28:00,84.3,69.9,30.05,South,169,2.0,7.0,62,0.00,,SKC,0.00,552.00,VWS V14.00,2013-07-15 22:28:00,
2013-07-15 17:34:00,84.5,70.1,30.05,South,169,12.0,12.0,62,0.00,,SKC,0.00,543.00,VWS V14.00,2013-07-15 22:34:00,
2013-07-15 17:39:00,84.8,69.9,30.04,ESE,122,2.0,12.0,61,0.00,,SKC,0.00,519.00,VWS V14.00,2013-07-15 22:39:00,
2013-07-15 17:44:00,85.0,69.6,30.05,South,182,5.0,10.0,60,0.00,,SKC,0.00,503.00,VWS V14.00,2013-07-15 22:44:00,
2013-07-15 17:49:00,85.0,69.6,30.04,SSE,153,3.0,5.0,60,0.00,,SKC,0.00,492.00,VWS V14.00,2013-07-15 22:49:00,
2013-07-15 17:54:00,84.9,69.0,30.04,SSW,196,5.0,9.0,59,0.00,,SKC,0.00,476.00,VWS V14.00,2013-07-15 22:54:00,
2013-07-15 17:59:00,84.8,68.9,30.04,South,189,5.0,10.0,59,0.00,,SKC,0.00,457.00,VWS V14.00,2013-07-15 22:59:00,
2013-07-15 18:05:00,84.7,68.8,30.05,SSE,159,5.0,10.0,59,0.00,,SKC,0.00,401.00,VWS V14.00,2013-07-15 23:05:00,
2013-07-15 18:11:00,84.5,69.1,30.04,SSE,163,9.0,10.0,60,0.00,,SKC,0.00,411.00,VWS V14.00,2013-07-15 23:11:00,
2013-07-15 18:16:00,84.3,68.9,30.04,SE,130,6.0,13.0,60,0.00,,SKC,0.00,406.00,VWS V14.00,2013-07-15 23:16:00,
2013-07-15 18:21:00,84.1,69.2,30.04,SE,124,5.0,11.0,61,0.00,,SKC,0.00,383.00,VWS V14.00,2013-07-15 23:21:00,
2013-07-15 18:27:00,83.9,69.0,30.04,South,178,4.0,12.0,61,0.00,,SKC,0.00,380.00,VWS V14.00,2013-07-15 23:27:00,
2013-07-15 18:32:00,83.9,69.5,30.04,SE,138,4.0,9.0,62,0.00,,SKC,0.00,353.00,VWS V14.00,2013-07-15 23:32:00,
2013-07-15 18:37:00,83.9,68.5,30.04,SE,145,8.0,13.0,60,0.00,,SKC,0.00,329.00,VWS V14.00,2013-07-15 23:37:00,
2013-07-15 18:42:00,83.7,69.3,30.04,ESE,123,3.0,11.0,62,0.00,,SKC,0.00,318.00,VWS V14.00,2013-07-15 23:42:00,
2013-07-15 18:47:00,83.7,69.3,30.04,SSE,155,5.0,6.0,62,0.00,,SKC,0.00,308.00,VWS V14.00,2013-07-15 23:47:00,
2013-07-15 18:52:00,83.6,69.7,30.04,SE,131,3.0,9.0,63,0.00,,SKC,0.00,288.00,VWS V14.00,2013-07-15 23:52:00,
2013-07-15 18:57:00,83.5,69.1,30.04,SE,133,7.0,7.0,62,0.00,,SKC,0.00,265.00,VWS V14.00,2013-07-15 23:57:00,
2013-07-15 19:02:00,83.4,69.9,30.04,SSE,154,2.0,6.0,64,0.00,,SKC,0.00,253.00,VWS V14.00,2013-07-16 00:02:00,
2013-07-15 19:07:00,83.4,69.9,30.04,SE,145,2.0,6.0,64,0.00,,SKC,0.00,227.00,VWS V14.00,2013-07-16 00:07:00,
2013-07-15 19:12:00,83.2,69.8,30.03,SSE,160,4.0,7.0,64,0.00,,SKC,0.00,227.00,VWS V14.00,2013-07-16 00:12:00,
2013-07-15 19:17:00,83.1,69.7,30.03,SSE,158,3.0,5.0,64,0.00,,SKC,0.00,218.00,VWS V14.00,2013-07-16 00:17:00,
2013-07-15 19:22:00,83.0,69.1,30.03,ESE,106,3.0,7.0,63,0.00,,SKC,0.00,197.00,VWS V14.00,2013-07-16 00:22:00,
2013-07-15 19:27:00,82.7,69.8,30.03,SE,134,1.0,5.0,65,0.00,,SKC,0.00,185.00,VWS V14.00,2013-07-16 00:27:00,
2013-07-15 19:32:00,82.5,70.0,30.03,SE,138,2.0,6.0,66,0.00,,SKC,0.00,165.00,VWS V14.00,2013-07-16 00:32:00,
2013-07-15 19:38:00,82.2,69.7,30.03,SE,145,2.0,5.0,66,0.00,,SKC,0.00,109.00,VWS V14.00,2013-07-16 00:38:00,
2013-07-15 19:44:00,81.9,69.9,30.03,SE,136,4.0,4.0,67,0.00,,SKC,0.00,90.00,VWS V14.00,2013-07-16 00:44:00,
2013-07-15 19:50:00,81.5,69.5,30.03,ESE,121,2.0,4.0,67,0.00,,SKC,0.00,84.00,VWS V14.00,2013-07-16 00:50:00,
2013-07-15 19:55:00,81.2,69.6,30.03,SE,140,3.0,6.0,68,0.00,,SKC,0.00,58.00,VWS V14.00,2013-07-16 00:55:00,
2013-07-15 20:02:00,80.8,69.7,30.03,ESE,123,1.0,4.0,69,0.00,,SKC,0.00,44.00,VWS V14.00,2013-07-16 01:02:00,
2013-07-15 20:07:00,80.6,69.9,30.03,ESE,121,2.0,3.0,70,0.00,,SKC,0.00,40.00,VWS V14.00,2013-07-16 01:07:00,
2013-07-15 20:12:00,80.3,69.6,30.02,SE,126,4.0,5.0,70,0.00,,SKC,0.00,35.00,VWS V14.00,2013-07-16 01:12:00,
2013-07-15 20:17:00,80.0,69.8,30.02,ESE,117,2.0,4.0,71,0.00,,SKC,0.00,42.00,VWS V14.00,2013-07-16 01:17:00,
2013-07-15 20:22:00,79.7,69.5,30.02,SE,127,3.0,4.0,71,0.00,,SKC,0.00,37.00,VWS V14.00,2013-07-16 01:22:00,
2013-07-15 20:28:00,79.5,69.7,30.02,ESE,113,2.0,4.0,72,0.00,,SKC,0.00,30.00,VWS V14.00,2013-07-16 01:28:00,
2013-07-15 20:33:00,79.2,69.8,30.02,SE,134,4.0,4.0,73,0.00,,SKC,0.00,26.00,VWS V14.00,2013-07-16 01:33:00,
2013-07-15 20:38:00,79.0,69.6,30.02,SE,135,4.0,5.0,73,0.00,,SKC,0.00,21.00,VWS V14.00,2013-07-16 01:38:00,
2013-07-15 20:45:00,78.7,69.7,30.02,ESE,122,2.0,3.0,74,0.00,,SKC,0.00,18.00,VWS V14.00,2013-07-16 01:45:00,
2013-07-15 20:50:00,78.6,69.6,30.02,ESE,114,2.0,3.0,74,0.00,,SKC,0.00,11.00,VWS V14.00,2013-07-16 01:50:00,
2013-07-15 20:56:00,78.3,69.7,30.02,ESE,115,0.0,3.0,75,0.00,,SKC,0.00,9.00,VWS V14.00,2013-07-16 01:56:00,
2013-07-15 21:01:00,78.0,69.8,30.02,SE,131,2.0,5.0,76,0.00,,SKC,0.00,7.00,VWS V14.00,2013-07-16 02:01:00,
2013-07-15 21:08:00,77.7,69.5,30.02,SE,133,3.0,5.0,76,0.00,,SKC,0.00,0.00,VWS V14.00,2013-07-16 02:08:00,
2013-07-15 21:13:00,77.5,69.7,30.02,SE,132,0.0,4.0,77,0.00,,SKC,0.00,0.00,VWS V14.00,2013-07-16 02:13:00,
2013-07-15 21:19:00,77.3,69.5,30.03,SE,124,1.0,2.0,77,0.00,,SKC,0.00,0.00,VWS V14.00,2013-07-16 02:19:00,
2013-07-15 21:24:00,77.0,69.6,30.03,SE,124,2.0,4.0,78,0.00,,SKC,0.00,0.00,VWS V14.00,2013-07-16 02:24:00,
2013-07-15 21:29:00,76.8,69.8,30.03,SE,125,2.0,4.0,79,0.00,,SKC,0.00,0.00,VWS V14.00,2013-07-16 02:29:00,
2013-07-15 21:34:00,76.6,69.6,30.03,SE,131,2.0,4.0,79,0.00,,SKC,0.00,0.00,VWS V14.00,2013-07-16 02:34:00,
2013-07-15 21:40:00,76.5,69.9,30.03,SE,142,2.0,2.0,80,0.00,,SKC,0.00,0.00,VWS V14.00,2013-07-16 02:40:00,
2013-07-15 21:45:00,76.3,69.7,30.03,SE,126,2.0,2.0,80,0.00,,SKC,0.00,0.00,VWS V14.00,2013-07-16 02:45:00,
2013-07-15 21:50:00,76.2,69.6,30.04,SE,133,2.0,4.0,80,0.00,,SKC,0.00,0.00,VWS V14.00,2013-07-16 02:50:00,
2013-07-15 21:55:00,76.0,69.4,30.03,SE,129,2.0,4.0,80,0.00,,SKC,0.00,0.00,VWS V14.00,2013-07-16 02:55:00,
2013-07-15 22:02:00,75.9,69.3,30.04,ESE,117,0.0,5.0,80,0.00,,SKC,0.00,0.00,VWS V14.00,2013-07-16 03:02:00,
2013-07-15 22:07:00,75.8,69.2,30.03,SE,142,1.0,5.0,80,0.00,,SKC,0.00,0.00,VWS V14.00,2013-07-16 03:07:00,
2013-07-15 22:12:00,75.7,69.5,30.03,SE,142,3.0,6.0,81,0.00,,SKC,0.00,0.00,VWS V14.00,2013-07-16 03:12:00,
2013-07-15 22:17:00,75.6,69.4,30.03,SE,127,3.0,5.0,81,0.00,,SKC,0.00,0.00,VWS V14.00,2013-07-16 03:17:00,
2013-07-15 22:22:00,75.6,69.4,30.03,SSE,151,2.0,5.0,81,0.00,,SKC,0.00,0.00,VWS V14.00,2013-07-16 03:22:00,
2013-07-15 22:27:00,75.5,69.3,30.03,SE,139,3.0,7.0,81,0.00,,SKC,0.00,0.00,VWS V14.00,2013-07-16 03:27:00,
2013-07-15 22:32:00,75.5,69.3,30.03,SE,135,6.0,6.0,81,0.00,,SKC,0.00,0.00,VWS V14.00,2013-07-16 03:32:00,
2013-07-15 22:37:00,75.4,69.2,30.03,SE,137,4.0,9.0,81,0.00,,SKC,0.00,0.00,VWS V14.00,2013-07-16 03:37:00,
2013-07-15 22:42:00,75.4,69.2,30.03,SSE,147,5.0,10.0,81,0.00,,SKC,0.00,0.00,VWS V14.00,2013-07-16 03:42:00,
2013-07-15 22:47:00,75.5,69.3,30.03,SSE,166,5.0,10.0,81,0.00,,SKC,0.00,0.00,VWS V14.00,2013-07-16 03:47:00,
2013-07-15 22:53:00,75.5,69.3,30.03,SE,137,6.0,7.0,81,0.00,,SKC,0.00,0.00,VWS V14.00,2013-07-16 03:53:00,
2013-07-15 22:58:00,75.5,69.3,30.03,SE,142,3.0,8.0,81,0.00,,SKC,0.00,0.00,VWS V14.00,2013-07-16 03:58:00,
2013-07-15 23:01:00,75.5,69.3,30.03,SE,131,4.0,5.0,81,0.00,,SKC,0.00,0.00,VWS V14.00,2013-07-16 04:01:00,
2013-07-15 23:03:00,75.4,69.2,30.03,SE,128,3.0,6.0,81,0.00,,SKC,0.00,0.00,VWS V14.00,2013-07-16 04:03:00,
2013-07-15 23:05:00,75.4,69.2,30.03,SE,130,6.0,10.0,81,0.00,,SKC,0.00,0.00,VWS V14.00,2013-07-16 04:05:00,
2013-07-15 23:10:00,75.3,69.4,30.03,ESE,108,4.0,7.0,82,0.00,,SKC,0.00,0.00,VWS V14.00,2013-07-16 04:10:00,
2013-07-15 23:15:00,75.2,69.3,30.04,ESE,122,5.0,9.0,82,0.00,,SKC,0.00,0.00,VWS V14.00,2013-07-16 04:15:00,
2013-07-15 23:20:00,75.2,69.3,30.04,SE,128,5.0,8.0,82,0.00,,SKC,0.00,0.00,VWS V14.00,2013-07-16 04:20:00,
2013-07-15 23:25:00,75.2,69.3,30.04,South,184,3.0,6.0,82,0.00,,SKC,0.00,0.00,VWS V14.00,2013-07-16 04:25:00,
2013-07-15 23:30:00,75.1,69.2,30.04,SE,126,6.0,7.0,82,0.00,,SKC,0.00,0.00,VWS V14.00,2013-07-16 04:30:00,
2013-07-15 23:35:00,75.1,69.2,30.04,SE,130,3.0,7.0,82,0.00,,SKC,0.00,0.00,VWS V14.00,2013-07-16 04:35:00,
2013-07-15 23:40:00,75.1,69.6,30.04,SE,142,3.0,5.0,83,0.00,,SKC,0.00,0.00,VWS V14.00,2013-07-16 04:40:00,
2013-07-15 23:45:00,75.1,69.6,30.03,SSE,157,6.0,7.0,83,0.00,,SKC,0.00,0.00,VWS V14.00,2013-07-16 04:45:00,
2013-07-15 23:50:00,75.1,69.6,30.03,SE,144,5.0,8.0,83,0.00,,SKC,0.00,0.00,VWS V14.00,2013-07-16 04:50:00,
2013-07-15 23:55:00,75.1,69.6,30.03,SE,136,4.0,7.0,83,0.00,,SKC,0.00,0.00,VWS V14.00,2013-07-16 04:55:00,